sensor_id;sensor_type;location;lat;lon;timestamp;P1;durP1;ratioP1;P2;durP2;ratioP2
37677;SDS011;23517;50.390;8.616;2023-03-07T00:00:58;25.95;;;14.07;;
37677;SDS011;23517;50.390;8.616;2023-03-07T00:03:25;24.70;;;12.93;;
37677;SDS011;23517;50.390;8.616;2023-03-07T00:05:59;22.65;;;13.40;;
37677;SDS011;23517;50.390;8.616;2023-03-07T00:08:33;22.60;;;13.32;;
37677;SDS011;23517;50.390;8.616;2023-03-07T00:11:01;22.27;;;12.90;;
37677;SDS011;23517;50.390;8.616;2023-03-07T00:13:34;25.15;;;13.73;;
37677;SDS011;23517;50.390;8.616;2023-03-07T00:16:06;23.73;;;12.93;;
37677;SDS011;23517;50.390;8.616;2023-03-07T00:18:36;24.08;;;13.88;;
37677;SDS011;23517;50.390;8.616;2023-03-07T00:21:04;21.67;;;12.82;;
37677;SDS011;23517;50.390;8.616;2023-03-07T00:23:34;23.25;;;13.05;;
37677;SDS011;23517;50.390;8.616;2023-03-07T00:26:07;23.65;;;13.32;;
37677;SDS011;23517;50.390;8.616;2023-03-07T00:28:40;23.73;;;13.18;;
37677;SDS011;23517;50.390;8.616;2023-03-07T00:31:09;23.17;;;12.75;;
37677;SDS011;23517;50.390;8.616;2023-03-07T00:33:37;22.05;;;12.88;;
37677;SDS011;23517;50.390;8.616;2023-03-07T00:36:09;25.50;;;13.65;;
37677;SDS011;23517;50.390;8.616;2023-03-07T00:38:41;23.45;;;13.30;;
37677;SDS011;23517;50.390;8.616;2023-03-07T00:41:09;23.33;;;13.50;;
37677;SDS011;23517;50.390;8.616;2023-03-07T00:43:41;23.40;;;13.35;;
37677;SDS011;23517;50.390;8.616;2023-03-07T00:46:08;24.63;;;13.32;;
37677;SDS011;23517;50.390;8.616;2023-03-07T00:48:36;21.23;;;12.68;;
37677;SDS011;23517;50.390;8.616;2023-03-07T00:51:05;24.42;;;13.18;;
37677;SDS011;23517;50.390;8.616;2023-03-07T00:53:34;20.90;;;12.90;;
37677;SDS011;23517;50.390;8.616;2023-03-07T00:56:03;21.60;;;13.02;;
37677;SDS011;23517;50.390;8.616;2023-03-07T00:58:35;22.08;;;13.15;;
37677;SDS011;23517;50.390;8.616;2023-03-07T01:01:03;24.13;;;12.43;;
37677;SDS011;23517;50.390;8.616;2023-03-07T01:03:31;21.98;;;13.10;;
37677;SDS011;23517;50.390;8.616;2023-03-07T01:06:03;21.17;;;12.57;;
37677;SDS011;23517;50.390;8.616;2023-03-07T01:08:32;20.60;;;12.82;;
37677;SDS011;23517;50.390;8.616;2023-03-07T01:11:00;20.83;;;12.13;;
37677;SDS011;23517;50.390;8.616;2023-03-07T01:13:29;21.45;;;13.25;;
37677;SDS011;23517;50.390;8.616;2023-03-07T01:18:33;19.52;;;12.18;;
37677;SDS011;23517;50.390;8.616;2023-03-07T01:21:00;19.73;;;11.60;;
37677;SDS011;23517;50.390;8.616;2023-03-07T01:23:30;22.13;;;12.70;;
37677;SDS011;23517;50.390;8.616;2023-03-07T01:25:56;21.50;;;12.40;;
37677;SDS011;23517;50.390;8.616;2023-03-07T01:28:23;20.60;;;12.70;;
37677;SDS011;23517;50.390;8.616;2023-03-07T01:30:56;18.98;;;11.80;;
37677;SDS011;23517;50.390;8.616;2023-03-07T01:33:24;20.55;;;12.38;;
37677;SDS011;23517;50.390;8.616;2023-03-07T01:35:51;20.85;;;12.63;;
37677;SDS011;23517;50.390;8.616;2023-03-07T01:38:18;19.30;;;11.70;;
37677;SDS011;23517;50.390;8.616;2023-03-07T01:40:45;19.67;;;11.32;;
37677;SDS011;23517;50.390;8.616;2023-03-07T01:43:30;19.38;;;12.68;;
37677;SDS011;23517;50.390;8.616;2023-03-07T01:48:54;18.77;;;11.85;;
37677;SDS011;23517;50.390;8.616;2023-03-07T01:51:26;21.63;;;12.05;;
37677;SDS011;23517;50.390;8.616;2023-03-07T01:53:54;19.95;;;11.73;;
37677;SDS011;23517;50.390;8.616;2023-03-07T01:56:23;18.88;;;12.00;;
37677;SDS011;23517;50.390;8.616;2023-03-07T01:58:50;17.40;;;11.43;;
37677;SDS011;23517;50.390;8.616;2023-03-07T02:01:19;20.33;;;11.88;;
37677;SDS011;23517;50.390;8.616;2023-03-07T02:06:20;18.95;;;12.00;;
37677;SDS011;23517;50.390;8.616;2023-03-07T02:08:50;19.20;;;12.07;;
37677;SDS011;23517;50.390;8.616;2023-03-07T02:11:19;23.35;;;12.23;;
37677;SDS011;23517;50.390;8.616;2023-03-07T02:13:46;18.80;;;12.75;;
37677;SDS011;23517;50.390;8.616;2023-03-07T02:16:13;17.77;;;11.60;;
37677;SDS011;23517;50.390;8.616;2023-03-07T02:18:46;17.75;;;11.88;;
37677;SDS011;23517;50.390;8.616;2023-03-07T02:24:17;17.30;;;11.40;;
37677;SDS011;23517;50.390;8.616;2023-03-07T02:27:06;20.55;;;12.98;;
37677;SDS011;23517;50.390;8.616;2023-03-07T02:29:32;19.55;;;11.60;;
37677;SDS011;23517;50.390;8.616;2023-03-07T02:31:59;22.65;;;12.50;;
37677;SDS011;23517;50.390;8.616;2023-03-07T02:34:26;19.17;;;11.85;;
37677;SDS011;23517;50.390;8.616;2023-03-07T02:37:08;18.27;;;10.98;;
37677;SDS011;23517;50.390;8.616;2023-03-07T02:39:43;20.90;;;13.38;;
37677;SDS011;23517;50.390;8.616;2023-03-07T02:42:13;17.80;;;11.13;;
37677;SDS011;23517;50.390;8.616;2023-03-07T02:44:45;19.10;;;11.15;;
37677;SDS011;23517;50.390;8.616;2023-03-07T02:47:13;18.90;;;11.85;;
37677;SDS011;23517;50.390;8.616;2023-03-07T02:49:39;19.80;;;11.63;;
37677;SDS011;23517;50.390;8.616;2023-03-07T02:52:06;17.08;;;10.98;;
37677;SDS011;23517;50.390;8.616;2023-03-07T02:54:35;18.92;;;11.80;;
37677;SDS011;23517;50.390;8.616;2023-03-07T02:57:02;18.30;;;11.85;;
37677;SDS011;23517;50.390;8.616;2023-03-07T02:59:30;18.27;;;11.07;;
37677;SDS011;23517;50.390;8.616;2023-03-07T03:01:56;15.43;;;10.38;;
37677;SDS011;23517;50.390;8.616;2023-03-07T03:04:23;15.20;;;10.13;;
37677;SDS011;23517;50.390;8.616;2023-03-07T03:06:50;18.42;;;10.88;;
37677;SDS011;23517;50.390;8.616;2023-03-07T03:09:17;15.63;;;10.27;;
37677;SDS011;23517;50.390;8.616;2023-03-07T03:11:43;15.15;;;9.00;;
37677;SDS011;23517;50.390;8.616;2023-03-07T03:14:10;15.30;;;9.68;;
37677;SDS011;23517;50.390;8.616;2023-03-07T03:16:36;16.85;;;9.50;;
37677;SDS011;23517;50.390;8.616;2023-03-07T03:19:05;15.93;;;9.65;;
37677;SDS011;23517;50.390;8.616;2023-03-07T03:21:32;14.57;;;9.32;;
37677;SDS011;23517;50.390;8.616;2023-03-07T03:24:05;14.10;;;9.10;;
37677;SDS011;23517;50.390;8.616;2023-03-07T03:26:33;15.05;;;8.85;;
37677;SDS011;23517;50.390;8.616;2023-03-07T03:29:01;13.40;;;8.68;;
37677;SDS011;23517;50.390;8.616;2023-03-07T03:31:28;14.55;;;9.10;;
37677;SDS011;23517;50.390;8.616;2023-03-07T03:34:05;14.15;;;8.65;;
37677;SDS011;23517;50.390;8.616;2023-03-07T03:36:31;13.57;;;8.80;;
37677;SDS011;23517;50.390;8.616;2023-03-07T03:38:58;13.98;;;8.90;;
37677;SDS011;23517;50.390;8.616;2023-03-07T03:41:25;13.73;;;9.15;;
37677;SDS011;23517;50.390;8.616;2023-03-07T03:43:52;12.25;;;8.18;;
37677;SDS011;23517;50.390;8.616;2023-03-07T03:46:19;12.52;;;8.38;;
37677;SDS011;23517;50.390;8.616;2023-03-07T03:48:55;11.70;;;8.20;;
37677;SDS011;23517;50.390;8.616;2023-03-07T03:51:22;12.50;;;8.90;;
37677;SDS011;23517;50.390;8.616;2023-03-07T03:53:50;13.07;;;8.95;;
37677;SDS011;23517;50.390;8.616;2023-03-07T03:56:21;11.75;;;8.40;;
37677;SDS011;23517;50.390;8.616;2023-03-07T03:58:49;13.68;;;8.60;;
37677;SDS011;23517;50.390;8.616;2023-03-07T04:01:19;11.90;;;8.48;;
37677;SDS011;23517;50.390;8.616;2023-03-07T04:03:49;11.13;;;8.27;;
37677;SDS011;23517;50.390;8.616;2023-03-07T04:06:21;10.68;;;8.05;;
37677;SDS011;23517;50.390;8.616;2023-03-07T04:08:53;13.65;;;8.98;;
37677;SDS011;23517;50.390;8.616;2023-03-07T04:11:21;14.32;;;8.55;;
37677;SDS011;23517;50.390;8.616;2023-03-07T04:13:51;13.43;;;9.32;;
37677;SDS011;23517;50.390;8.616;2023-03-07T04:16:21;12.23;;;8.60;;
37677;SDS011;23517;50.390;8.616;2023-03-07T04:18:48;12.77;;;9.07;;
37677;SDS011;23517;50.390;8.616;2023-03-07T04:21:18;14.15;;;9.18;;
37677;SDS011;23517;50.390;8.616;2023-03-07T04:23:45;12.32;;;8.93;;
37677;SDS011;23517;50.390;8.616;2023-03-07T04:26:14;15.10;;;9.45;;
37677;SDS011;23517;50.390;8.616;2023-03-07T04:28:41;14.05;;;9.18;;
37677;SDS011;23517;50.390;8.616;2023-03-07T04:31:13;14.85;;;9.75;;
37677;SDS011;23517;50.390;8.616;2023-03-07T04:33:47;15.43;;;10.18;;
37677;SDS011;23517;50.390;8.616;2023-03-07T04:36:15;14.68;;;10.38;;
37677;SDS011;23517;50.390;8.616;2023-03-07T04:38:43;13.45;;;9.20;;
37677;SDS011;23517;50.390;8.616;2023-03-07T04:41:11;14.57;;;10.27;;
37677;SDS011;23517;50.390;8.616;2023-03-07T04:43:40;15.98;;;10.68;;
37677;SDS011;23517;50.390;8.616;2023-03-07T04:46:08;17.77;;;10.25;;
37677;SDS011;23517;50.390;8.616;2023-03-07T04:48:36;16.55;;;10.95;;
37677;SDS011;23517;50.390;8.616;2023-03-07T04:51:04;16.50;;;10.57;;
37677;SDS011;23517;50.390;8.616;2023-03-07T04:53:31;16.00;;;10.73;;
37677;SDS011;23517;50.390;8.616;2023-03-07T04:55:59;16.27;;;10.82;;
37677;SDS011;23517;50.390;8.616;2023-03-07T04:58:27;16.17;;;10.80;;
37677;SDS011;23517;50.390;8.616;2023-03-07T05:00:56;15.15;;;10.45;;
37677;SDS011;23517;50.390;8.616;2023-03-07T05:03:23;19.38;;;11.07;;
37677;SDS011;23517;50.390;8.616;2023-03-07T05:05:51;16.60;;;11.18;;
37677;SDS011;23517;50.390;8.616;2023-03-07T05:08:18;15.52;;;10.77;;
37677;SDS011;23517;50.390;8.616;2023-03-07T05:10:46;16.50;;;10.65;;
37677;SDS011;23517;50.390;8.616;2023-03-07T05:13:15;17.63;;;11.80;;
37677;SDS011;23517;50.390;8.616;2023-03-07T05:15:42;15.70;;;10.80;;
37677;SDS011;23517;50.390;8.616;2023-03-07T05:18:08;16.35;;;11.15;;
37677;SDS011;23517;50.390;8.616;2023-03-07T05:20:35;18.55;;;11.32;;
37677;SDS011;23517;50.390;8.616;2023-03-07T05:23:02;16.10;;;11.10;;
37677;SDS011;23517;50.390;8.616;2023-03-07T05:25:29;16.90;;;11.85;;
37677;SDS011;23517;50.390;8.616;2023-03-07T05:27:56;17.95;;;10.75;;
37677;SDS011;23517;50.390;8.616;2023-03-07T05:30:22;17.88;;;11.63;;
37677;SDS011;23517;50.390;8.616;2023-03-07T05:32:49;18.95;;;12.00;;
37677;SDS011;23517;50.390;8.616;2023-03-07T05:35:16;17.08;;;11.70;;
37677;SDS011;23517;50.390;8.616;2023-03-07T05:37:43;20.10;;;12.10;;
37677;SDS011;23517;50.390;8.616;2023-03-07T05:40:10;16.55;;;11.23;;
37677;SDS011;23517;50.390;8.616;2023-03-07T05:42:38;17.75;;;12.00;;
37677;SDS011;23517;50.390;8.616;2023-03-07T05:45:05;20.35;;;12.02;;
37677;SDS011;23517;50.390;8.616;2023-03-07T05:47:32;17.77;;;11.27;;
37677;SDS011;23517;50.390;8.616;2023-03-07T05:49:59;17.92;;;11.57;;
37677;SDS011;23517;50.390;8.616;2023-03-07T05:52:26;16.80;;;11.10;;
37677;SDS011;23517;50.390;8.616;2023-03-07T05:54:54;16.30;;;10.68;;
37677;SDS011;23517;50.390;8.616;2023-03-07T05:57:21;17.20;;;10.95;;
37677;SDS011;23517;50.390;8.616;2023-03-07T05:59:48;15.88;;;10.98;;
37677;SDS011;23517;50.390;8.616;2023-03-07T06:02:14;19.80;;;12.00;;
37677;SDS011;23517;50.390;8.616;2023-03-07T06:04:41;17.45;;;11.43;;
37677;SDS011;23517;50.390;8.616;2023-03-07T06:07:08;19.23;;;10.70;;
37677;SDS011;23517;50.390;8.616;2023-03-07T06:09:35;19.17;;;11.20;;
37677;SDS011;23517;50.390;8.616;2023-03-07T06:12:01;18.88;;;11.25;;
37677;SDS011;23517;50.390;8.616;2023-03-07T06:14:29;17.35;;;11.30;;
37677;SDS011;23517;50.390;8.616;2023-03-07T06:16:57;16.20;;;10.77;;
37677;SDS011;23517;50.390;8.616;2023-03-07T06:19:23;20.50;;;11.82;;
37677;SDS011;23517;50.390;8.616;2023-03-07T06:21:50;15.57;;;10.55;;
37677;SDS011;23517;50.390;8.616;2023-03-07T06:24:22;16.08;;;10.30;;
37677;SDS011;23517;50.390;8.616;2023-03-07T06:26:48;16.85;;;10.88;;
37677;SDS011;23517;50.390;8.616;2023-03-07T06:29:15;16.10;;;10.75;;
37677;SDS011;23517;50.390;8.616;2023-03-07T06:31:41;15.77;;;10.50;;
37677;SDS011;23517;50.390;8.616;2023-03-07T06:34:09;17.30;;;10.75;;
37677;SDS011;23517;50.390;8.616;2023-03-07T06:36:35;18.90;;;11.10;;
37677;SDS011;23517;50.390;8.616;2023-03-07T06:39:02;14.60;;;10.40;;
37677;SDS011;23517;50.390;8.616;2023-03-07T06:41:29;16.10;;;10.50;;
37677;SDS011;23517;50.390;8.616;2023-03-07T06:43:55;15.15;;;10.45;;
37677;SDS011;23517;50.390;8.616;2023-03-07T06:46:23;15.30;;;10.38;;
37677;SDS011;23517;50.390;8.616;2023-03-07T06:48:50;17.27;;;10.65;;
37677;SDS011;23517;50.390;8.616;2023-03-07T06:51:17;17.27;;;10.73;;
37677;SDS011;23517;50.390;8.616;2023-03-07T06:53:43;17.17;;;10.70;;
37677;SDS011;23517;50.390;8.616;2023-03-07T06:56:10;17.88;;;10.93;;
37677;SDS011;23517;50.390;8.616;2023-03-07T06:58:39;19.15;;;10.20;;
37677;SDS011;23517;50.390;8.616;2023-03-07T07:01:05;17.88;;;11.25;;
37677;SDS011;23517;50.390;8.616;2023-03-07T07:03:32;16.23;;;10.05;;
37677;SDS011;23517;50.390;8.616;2023-03-07T07:05:59;15.77;;;10.38;;
37677;SDS011;23517;50.390;8.616;2023-03-07T07:08:28;18.10;;;10.35;;
37677;SDS011;23517;50.390;8.616;2023-03-07T07:10:54;15.10;;;10.20;;
37677;SDS011;23517;50.390;8.616;2023-03-07T07:13:24;16.40;;;10.52;;
37677;SDS011;23517;50.390;8.616;2023-03-07T07:15:51;14.43;;;9.93;;
37677;SDS011;23517;50.390;8.616;2023-03-07T07:18:17;17.40;;;11.25;;
37677;SDS011;23517;50.390;8.616;2023-03-07T07:20:44;15.48;;;10.13;;
37677;SDS011;23517;50.390;8.616;2023-03-07T07:23:10;17.27;;;10.77;;
37677;SDS011;23517;50.390;8.616;2023-03-07T07:25:37;19.08;;;11.57;;
37677;SDS011;23517;50.390;8.616;2023-03-07T07:28:04;20.65;;;11.60;;
37677;SDS011;23517;50.390;8.616;2023-03-07T07:30:31;16.58;;;10.48;;
37677;SDS011;23517;50.390;8.616;2023-03-07T07:32:57;17.95;;;11.38;;
37677;SDS011;23517;50.390;8.616;2023-03-07T07:35:25;15.65;;;10.63;;
37677;SDS011;23517;50.390;8.616;2023-03-07T07:37:51;14.85;;;10.23;;
37677;SDS011;23517;50.390;8.616;2023-03-07T07:40:19;15.55;;;10.63;;
37677;SDS011;23517;50.390;8.616;2023-03-07T07:42:49;19.17;;;10.93;;
37677;SDS011;23517;50.390;8.616;2023-03-07T07:45:20;16.00;;;10.70;;
37677;SDS011;23517;50.390;8.616;2023-03-07T07:47:48;14.25;;;9.90;;
37677;SDS011;23517;50.390;8.616;2023-03-07T07:50:16;16.42;;;10.38;;
37677;SDS011;23517;50.390;8.616;2023-03-07T07:52:44;17.63;;;11.18;;
37677;SDS011;23517;50.390;8.616;2023-03-07T07:55:11;15.55;;;10.13;;
37677;SDS011;23517;50.390;8.616;2023-03-07T07:57:40;13.95;;;9.63;;
37677;SDS011;23517;50.390;8.616;2023-03-07T08:00:08;15.20;;;9.88;;
37677;SDS011;23517;50.390;8.616;2023-03-07T08:02:37;15.75;;;10.35;;
37677;SDS011;23517;50.390;8.616;2023-03-07T08:05:07;13.90;;;9.13;;
37677;SDS011;23517;50.390;8.616;2023-03-07T08:07:37;15.20;;;9.07;;
37677;SDS011;23517;50.390;8.616;2023-03-07T08:10:10;14.65;;;9.57;;
37677;SDS011;23517;50.390;8.616;2023-03-07T08:12:44;13.63;;;8.98;;
37677;SDS011;23517;50.390;8.616;2023-03-07T08:15:16;13.00;;;9.10;;
37677;SDS011;23517;50.390;8.616;2023-03-07T08:17:49;14.10;;;9.07;;
37677;SDS011;23517;50.390;8.616;2023-03-07T08:20:17;13.52;;;9.60;;
37677;SDS011;23517;50.390;8.616;2023-03-07T08:22:47;13.90;;;8.88;;
37677;SDS011;23517;50.390;8.616;2023-03-07T08:25:17;14.55;;;9.63;;
37677;SDS011;23517;50.390;8.616;2023-03-07T08:27:46;13.80;;;8.95;;
37677;SDS011;23517;50.390;8.616;2023-03-07T08:30:18;14.52;;;9.65;;
37677;SDS011;23517;50.390;8.616;2023-03-07T08:32:47;14.77;;;9.13;;
37677;SDS011;23517;50.390;8.616;2023-03-07T08:35:16;12.90;;;9.02;;
37677;SDS011;23517;50.390;8.616;2023-03-07T08:37:43;12.02;;;8.10;;
37677;SDS011;23517;50.390;8.616;2023-03-07T08:40:11;12.68;;;8.35;;
37677;SDS011;23517;50.390;8.616;2023-03-07T08:42:39;11.35;;;8.07;;
37677;SDS011;23517;50.390;8.616;2023-03-07T08:45:06;10.57;;;7.53;;
37677;SDS011;23517;50.390;8.616;2023-03-07T08:47:34;12.50;;;7.80;;
37677;SDS011;23517;50.390;8.616;2023-03-07T08:50:01;11.68;;;7.50;;
37677;SDS011;23517;50.390;8.616;2023-03-07T08:52:29;10.95;;;8.10;;
37677;SDS011;23517;50.390;8.616;2023-03-07T08:54:56;13.20;;;7.80;;
37677;SDS011;23517;50.390;8.616;2023-03-07T08:57:22;11.60;;;7.80;;
37677;SDS011;23517;50.390;8.616;2023-03-07T08:59:49;11.13;;;7.55;;
37677;SDS011;23517;50.390;8.616;2023-03-07T09:02:16;10.07;;;7.43;;
37677;SDS011;23517;50.390;8.616;2023-03-07T09:04:42;10.75;;;8.02;;
37677;SDS011;23517;50.390;8.616;2023-03-07T09:07:10;14.55;;;8.45;;
37677;SDS011;23517;50.390;8.616;2023-03-07T09:09:37;11.55;;;7.60;;
37677;SDS011;23517;50.390;8.616;2023-03-07T09:12:03;10.43;;;7.55;;
37677;SDS011;23517;50.390;8.616;2023-03-07T09:14:30;10.85;;;8.18;;
37677;SDS011;23517;50.390;8.616;2023-03-07T09:16:58;14.80;;;8.45;;
37677;SDS011;23517;50.390;8.616;2023-03-07T09:19:24;12.00;;;8.70;;
37677;SDS011;23517;50.390;8.616;2023-03-07T09:21:51;15.70;;;9.30;;
37677;SDS011;23517;50.390;8.616;2023-03-07T09:24:18;13.02;;;9.27;;
37677;SDS011;23517;50.390;8.616;2023-03-07T09:26:44;11.65;;;7.97;;
37677;SDS011;23517;50.390;8.616;2023-03-07T09:29:11;12.05;;;8.65;;
37677;SDS011;23517;50.390;8.616;2023-03-07T09:31:38;10.70;;;7.55;;
37677;SDS011;23517;50.390;8.616;2023-03-07T09:34:16;11.82;;;8.13;;
37677;SDS011;23517;50.390;8.616;2023-03-07T09:36:43;13.23;;;8.80;;
37677;SDS011;23517;50.390;8.616;2023-03-07T09:39:09;14.75;;;8.80;;
37677;SDS011;23517;50.390;8.616;2023-03-07T09:41:51;12.13;;;8.30;;
37677;SDS011;23517;50.390;8.616;2023-03-07T09:49:51;12.27;;;7.95;;
37677;SDS011;23517;50.390;8.616;2023-03-07T09:52:21;13.30;;;8.63;;
37677;SDS011;23517;50.390;8.616;2023-03-07T09:55:00;13.27;;;8.25;;
37677;SDS011;23517;50.390;8.616;2023-03-07T09:57:32;11.60;;;8.30;;
37677;SDS011;23517;50.390;8.616;2023-03-07T10:05:58;11.85;;;7.82;;
37677;SDS011;23517;50.390;8.616;2023-03-07T10:08:38;10.93;;;7.40;;
37677;SDS011;23517;50.390;8.616;2023-03-07T10:14:04;10.80;;;7.72;;
37677;SDS011;23517;50.390;8.616;2023-03-07T10:19:36;9.88;;;7.00;;
37677;SDS011;23517;50.390;8.616;2023-03-07T10:25:26;9.00;;;6.07;;
37677;SDS011;23517;50.390;8.616;2023-03-07T10:28:01;8.77;;;5.80;;
37677;SDS011;23517;50.390;8.616;2023-03-07T10:30:56;8.63;;;6.18;;
37677;SDS011;23517;50.390;8.616;2023-03-07T10:33:30;10.18;;;6.90;;
37677;SDS011;23517;50.390;8.616;2023-03-07T10:36:05;9.20;;;6.20;;
37677;SDS011;23517;50.390;8.616;2023-03-07T10:38:38;13.52;;;6.47;;
37677;SDS011;23517;50.390;8.616;2023-03-07T10:41:26;11.35;;;6.55;;
37677;SDS011;23517;50.390;8.616;2023-03-07T10:43:53;9.07;;;6.50;;
37677;SDS011;23517;50.390;8.616;2023-03-07T10:46:23;9.23;;;6.40;;
37677;SDS011;23517;50.390;8.616;2023-03-07T10:49:06;10.23;;;6.70;;
37677;SDS011;23517;50.390;8.616;2023-03-07T10:52:04;10.82;;;6.40;;
37677;SDS011;23517;50.390;8.616;2023-03-07T10:54:43;8.90;;;6.13;;
37677;SDS011;23517;50.390;8.616;2023-03-07T10:57:10;9.93;;;6.68;;
37677;SDS011;23517;50.390;8.616;2023-03-07T10:59:40;10.20;;;5.97;;
37677;SDS011;23517;50.390;8.616;2023-03-07T11:02:24;12.30;;;6.60;;
37677;SDS011;23517;50.390;8.616;2023-03-07T11:05:26;8.32;;;6.00;;
37677;SDS011;23517;50.390;8.616;2023-03-07T11:07:58;13.55;;;5.95;;
37677;SDS011;23517;50.390;8.616;2023-03-07T11:10:34;10.35;;;6.13;;
37677;SDS011;23517;50.390;8.616;2023-03-07T11:13:15;8.60;;;6.38;;
37677;SDS011;23517;50.390;8.616;2023-03-07T11:15:44;10.07;;;5.88;;
37677;SDS011;23517;50.390;8.616;2023-03-07T11:18:31;8.88;;;5.97;;
37677;SDS011;23517;50.390;8.616;2023-03-07T11:21:22;8.38;;;5.97;;
37677;SDS011;23517;50.390;8.616;2023-03-07T11:24:05;8.30;;;5.95;;
37677;SDS011;23517;50.390;8.616;2023-03-07T11:26:48;8.35;;;5.53;;
37677;SDS011;23517;50.390;8.616;2023-03-07T11:29:23;7.00;;;5.50;;
37677;SDS011;23517;50.390;8.616;2023-03-07T11:31:51;8.25;;;5.70;;
37677;SDS011;23517;50.390;8.616;2023-03-07T11:34:40;7.75;;;5.47;;
37677;SDS011;23517;50.390;8.616;2023-03-07T11:39:56;6.78;;;5.10;;
37677;SDS011;23517;50.390;8.616;2023-03-07T11:42:49;7.43;;;5.20;;
37677;SDS011;23517;50.390;8.616;2023-03-07T11:45:47;7.22;;;5.10;;
37677;SDS011;23517;50.390;8.616;2023-03-07T11:48:43;7.80;;;5.15;;
37677;SDS011;23517;50.390;8.616;2023-03-07T12:03:02;5.95;;;4.68;;
37677;SDS011;23517;50.390;8.616;2023-03-07T12:06:27;6.40;;;4.50;;
37677;SDS011;23517;50.390;8.616;2023-03-07T12:12:15;7.22;;;4.65;;
37677;SDS011;23517;50.390;8.616;2023-03-07T12:21:02;6.70;;;4.88;;
37677;SDS011;23517;50.390;8.616;2023-03-07T12:23:51;5.85;;;4.20;;
37677;SDS011;23517;50.390;8.616;2023-03-07T12:29:19;5.57;;;3.88;;
37677;SDS011;23517;50.390;8.616;2023-03-07T12:32:02;6.00;;;4.10;;
37677;SDS011;23517;50.390;8.616;2023-03-07T12:34:39;6.03;;;4.28;;
37677;SDS011;23517;50.390;8.616;2023-03-07T12:37:22;6.50;;;4.30;;
37677;SDS011;23517;50.390;8.616;2023-03-07T12:39:59;9.10;;;4.63;;
37677;SDS011;23517;50.390;8.616;2023-03-07T12:45:25;5.85;;;4.07;;
37677;SDS011;23517;50.390;8.616;2023-03-07T12:50:30;11.70;;;5.30;;
37677;SDS011;23517;50.390;8.616;2023-03-07T12:59:04;8.13;;;4.97;;
37677;SDS011;23517;50.390;8.616;2023-03-07T13:04:39;8.35;;;5.10;;
37677;SDS011;23517;50.390;8.616;2023-03-07T13:10:06;7.10;;;4.72;;
37677;SDS011;23517;50.390;8.616;2023-03-07T13:12:36;9.40;;;4.70;;
37677;SDS011;23517;50.390;8.616;2023-03-07T13:22:55;6.90;;;4.28;;
37677;SDS011;23517;50.390;8.616;2023-03-07T13:27:58;5.80;;;4.25;;
37677;SDS011;23517;50.390;8.616;2023-03-07T13:30:27;6.40;;;4.00;;
37677;SDS011;23517;50.390;8.616;2023-03-07T13:33:00;6.50;;;3.85;;
37677;SDS011;23517;50.390;8.616;2023-03-07T13:35:54;6.68;;;4.15;;
37677;SDS011;23517;50.390;8.616;2023-03-07T13:40:57;5.15;;;3.45;;
37677;SDS011;23517;50.390;8.616;2023-03-07T13:46:01;6.95;;;4.43;;
37677;SDS011;23517;50.390;8.616;2023-03-07T13:49:03;7.30;;;4.82;;
37677;SDS011;23517;50.390;8.616;2023-03-07T13:51:30;7.00;;;4.10;;
37677;SDS011;23517;50.390;8.616;2023-03-07T13:54:01;5.63;;;3.72;;
37677;SDS011;23517;50.390;8.616;2023-03-07T13:56:29;5.20;;;3.30;;
37677;SDS011;23517;50.390;8.616;2023-03-07T14:01:53;5.57;;;3.80;;
37677;SDS011;23517;50.390;8.616;2023-03-07T14:04:29;6.75;;;4.00;;
37677;SDS011;23517;50.390;8.616;2023-03-07T14:07:11;8.15;;;4.75;;
37677;SDS011;23517;50.390;8.616;2023-03-07T14:10:00;26.23;;;9.40;;
37677;SDS011;23517;50.390;8.616;2023-03-07T14:22:15;14.93;;;5.47;;
37677;SDS011;23517;50.390;8.616;2023-03-07T14:28:32;7.10;;;4.97;;
37677;SDS011;23517;50.390;8.616;2023-03-07T14:31:19;6.88;;;4.45;;
37677;SDS011;23517;50.390;8.616;2023-03-07T14:33:55;6.85;;;4.95;;
37677;SDS011;23517;50.390;8.616;2023-03-07T14:36:26;6.70;;;4.70;;
37677;SDS011;23517;50.390;8.616;2023-03-07T14:38:56;7.82;;;5.32;;
37677;SDS011;23517;50.390;8.616;2023-03-07T14:44:33;6.30;;;4.20;;
37677;SDS011;23517;50.390;8.616;2023-03-07T14:52:56;6.30;;;4.20;;
37677;SDS011;23517;50.390;8.616;2023-03-07T14:55:37;7.25;;;4.47;;
37677;SDS011;23517;50.390;8.616;2023-03-07T14:58:13;7.20;;;4.47;;
37677;SDS011;23517;50.390;8.616;2023-03-07T15:00:58;6.18;;;4.03;;
37677;SDS011;23517;50.390;8.616;2023-03-07T15:03:43;6.18;;;4.72;;
37677;SDS011;23517;50.390;8.616;2023-03-07T15:06:16;7.60;;;4.50;;
37677;SDS011;23517;50.390;8.616;2023-03-07T15:08:47;6.38;;;4.50;;
37677;SDS011;23517;50.390;8.616;2023-03-07T15:14:32;6.13;;;4.30;;
37677;SDS011;23517;50.390;8.616;2023-03-07T15:16:59;6.82;;;4.65;;
37677;SDS011;23517;50.390;8.616;2023-03-07T15:22:15;7.43;;;4.53;;
37677;SDS011;23517;50.390;8.616;2023-03-07T15:24:51;7.20;;;4.82;;
37677;SDS011;23517;50.390;8.616;2023-03-07T15:27:23;7.55;;;4.93;;
37677;SDS011;23517;50.390;8.616;2023-03-07T15:29:56;9.82;;;4.88;;
37677;SDS011;23517;50.390;8.616;2023-03-07T15:32:30;6.20;;;4.53;;
37677;SDS011;23517;50.390;8.616;2023-03-07T15:37:33;7.88;;;4.45;;
37677;SDS011;23517;50.390;8.616;2023-03-07T15:40:20;6.45;;;4.65;;
37677;SDS011;23517;50.390;8.616;2023-03-07T15:42:51;9.05;;;4.60;;
37677;SDS011;23517;50.390;8.616;2023-03-07T15:45:28;5.93;;;4.60;;
37677;SDS011;23517;50.390;8.616;2023-03-07T15:50:55;7.22;;;4.22;;
37677;SDS011;23517;50.390;8.616;2023-03-07T15:56:41;7.00;;;4.10;;
37677;SDS011;23517;50.390;8.616;2023-03-07T16:04:57;5.97;;;4.05;;
37677;SDS011;23517;50.390;8.616;2023-03-07T16:07:50;6.35;;;4.30;;
37677;SDS011;23517;50.390;8.616;2023-03-07T16:10:19;9.32;;;4.63;;
37677;SDS011;23517;50.390;8.616;2023-03-07T16:12:48;7.75;;;4.80;;
37677;SDS011;23517;50.390;8.616;2023-03-07T16:15:16;8.60;;;4.30;;
37677;SDS011;23517;50.390;8.616;2023-03-07T16:17:45;7.00;;;4.30;;
37677;SDS011;23517;50.390;8.616;2023-03-07T16:20:19;8.75;;;4.47;;
37677;SDS011;23517;50.390;8.616;2023-03-07T16:22:48;6.75;;;4.45;;
37677;SDS011;23517;50.390;8.616;2023-03-07T16:25:15;6.30;;;4.30;;
37677;SDS011;23517;50.390;8.616;2023-03-07T16:27:43;6.97;;;4.20;;
37677;SDS011;23517;50.390;8.616;2023-03-07T16:30:17;8.60;;;4.60;;
37677;SDS011;23517;50.390;8.616;2023-03-07T16:32:48;8.73;;;4.60;;
37677;SDS011;23517;50.390;8.616;2023-03-07T16:35:17;6.47;;;4.72;;
37677;SDS011;23517;50.390;8.616;2023-03-07T16:37:49;6.03;;;4.57;;
37677;SDS011;23517;50.390;8.616;2023-03-07T16:40:17;5.55;;;4.35;;
37677;SDS011;23517;50.390;8.616;2023-03-07T16:42:46;5.82;;;4.38;;
37677;SDS011;23517;50.390;8.616;2023-03-07T16:45:26;5.97;;;4.32;;
37677;SDS011;23517;50.390;8.616;2023-03-07T16:47:56;8.02;;;4.60;;
37677;SDS011;23517;50.390;8.616;2023-03-07T16:50:29;5.13;;;4.07;;
37677;SDS011;23517;50.390;8.616;2023-03-07T16:52:58;6.47;;;4.03;;
37677;SDS011;23517;50.390;8.616;2023-03-07T16:55:25;7.80;;;5.07;;
37677;SDS011;23517;50.390;8.616;2023-03-07T16:58:00;8.10;;;5.43;;
37677;SDS011;23517;50.390;8.616;2023-03-07T17:00:29;6.80;;;4.93;;
37677;SDS011;23517;50.390;8.616;2023-03-07T17:02:57;8.18;;;5.00;;
37677;SDS011;23517;50.390;8.616;2023-03-07T17:05:27;8.23;;;5.13;;
37677;SDS011;23517;50.390;8.616;2023-03-07T17:07:55;7.05;;;4.88;;
37677;SDS011;23517;50.390;8.616;2023-03-07T17:10:23;8.43;;;4.85;;
37677;SDS011;23517;50.390;8.616;2023-03-07T17:12:51;7.82;;;5.45;;